createdAt,value
2023-01-24T00:01:18.276Z,11.80
2023-01-24T00:03:45.941Z,12.23
2023-01-24T00:06:13.538Z,12.10
2023-01-24T00:08:41.242Z,11.90
2023-01-24T00:11:11.441Z,11.70
2023-01-24T00:13:39.771Z,13.35
2023-01-24T00:16:09.508Z,13.35
2023-01-24T00:18:38.617Z,12.20
2023-01-24T00:21:10.288Z,11.95
2023-01-24T00:23:38.213Z,11.50
2023-01-24T00:26:06.066Z,11.88
2023-01-24T00:28:33.848Z,12.05
2023-01-24T00:31:01.822Z,12.20
2023-01-24T00:33:29.514Z,12.32
2023-01-24T00:35:58.416Z,12.00
2023-01-24T00:38:26.173Z,12.57
2023-01-24T00:40:53.867Z,12.65
2023-01-24T00:43:21.437Z,12.60
2023-01-24T00:45:49.013Z,12.43
2023-01-24T00:48:16.835Z,12.60
2023-01-24T00:50:44.424Z,12.80
2023-01-24T00:53:13.614Z,12.18
2023-01-24T00:55:44.706Z,12.30
2023-01-24T00:58:12.902Z,12.70
2023-01-24T01:00:41.249Z,11.73
2023-01-24T01:03:11.824Z,12.82
2023-01-24T01:05:39.478Z,11.93
2023-01-24T01:08:07.231Z,12.05
2023-01-24T01:10:36.250Z,12.10
2023-01-24T01:13:04.571Z,12.02
2023-01-24T01:15:32.905Z,12.13
2023-01-24T01:18:01.017Z,11.95
2023-01-24T01:20:28.848Z,11.88
2023-01-24T01:22:56.878Z,11.52
2023-01-24T01:25:24.586Z,11.88
2023-01-24T01:27:53.663Z,11.73
2023-01-24T01:30:21.314Z,11.80
2023-01-24T01:32:48.876Z,11.77
2023-01-24T01:35:16.784Z,12.50
2023-01-24T01:37:44.433Z,11.73
2023-01-24T01:40:12.816Z,12.18
2023-01-24T01:42:51.006Z,12.00
2023-01-24T01:45:40.055Z,12.38
2023-01-24T01:48:17.178Z,11.63
2023-01-24T01:50:49.512Z,11.48
2023-01-24T01:53:17.767Z,11.25
2023-01-24T01:55:49.723Z,11.70
2023-01-24T01:58:19.516Z,11.60
2023-01-24T02:00:51.630Z,12.55
2023-01-24T02:03:40.251Z,12.23
2023-01-24T02:06:12.691Z,12.10
2023-01-24T02:08:41.994Z,12.05
2023-01-24T02:11:29.072Z,11.93
2023-01-24T02:14:17.102Z,12.60
2023-01-24T02:16:45.053Z,12.60
2023-01-24T02:19:22.537Z,12.82
2023-01-24T02:21:57.349Z,12.60
2023-01-24T02:24:35.006Z,12.30
2023-01-24T02:27:03.971Z,12.48
2023-01-24T02:29:31.649Z,12.80
2023-01-24T02:32:00.997Z,13.25
2023-01-24T02:34:30.139Z,13.23
2023-01-24T02:37:00.732Z,13.00
2023-01-24T02:39:31.829Z,13.20
2023-01-24T02:42:03.256Z,13.43
2023-01-24T02:44:37.395Z,13.23
2023-01-24T02:47:05.554Z,13.55
2023-01-24T02:49:33.233Z,12.82
2023-01-24T02:52:18.369Z,13.82
2023-01-24T02:54:45.981Z,13.80
2023-01-24T02:57:31.110Z,13.15
2023-01-24T03:00:00.121Z,13.35
2023-01-24T03:02:27.822Z,13.37
2023-01-24T03:04:55.686Z,13.38
2023-01-24T03:07:23.265Z,13.23
2023-01-24T03:09:50.833Z,12.82
2023-01-24T03:12:35.888Z,13.35
2023-01-24T03:15:23.070Z,13.23
2023-01-24T03:18:08.506Z,13.67
2023-01-24T03:20:54.017Z,13.60
2023-01-24T03:23:39.114Z,13.88
2023-01-24T03:26:24.244Z,13.65
2023-01-24T03:29:09.829Z,13.98
2023-01-24T03:31:56.708Z,14.43
2023-01-24T03:34:33.709Z,13.85
2023-01-24T03:37:02.742Z,13.63
2023-01-24T03:39:48.181Z,13.48
2023-01-24T03:42:15.849Z,13.77
2023-01-24T03:44:43.619Z,12.93
2023-01-24T03:47:12.585Z,13.77
2023-01-24T03:49:57.883Z,14.65
2023-01-24T03:52:31.619Z,14.55
2023-01-24T03:55:00.620Z,13.52
2023-01-24T03:57:29.187Z,14.20
2023-01-24T03:59:57.084Z,14.68
2023-01-24T04:02:26.104Z,13.57
2023-01-24T04:05:11.531Z,15.15
2023-01-24T04:07:39.067Z,14.18
2023-01-24T04:10:08.268Z,14.47
2023-01-24T04:12:35.852Z,13.93
2023-01-24T04:15:03.507Z,14.40
2023-01-24T04:17:32.409Z,15.10
2023-01-24T04:19:59.967Z,15.02
2023-01-24T04:22:27.596Z,15.80
2023-01-24T04:24:55.151Z,15.75
2023-01-24T04:27:22.770Z,17.20
2023-01-24T04:29:50.369Z,16.30
2023-01-24T04:32:17.957Z,15.23
2023-01-24T04:34:46.859Z,15.90
2023-01-24T04:37:14.474Z,15.68
2023-01-24T04:39:42.227Z,15.63
2023-01-24T04:42:09.819Z,15.30
2023-01-24T04:44:37.451Z,14.45
2023-01-24T04:47:05.304Z,14.70
2023-01-24T04:49:32.988Z,15.80
2023-01-24T04:52:01.878Z,15.05
2023-01-24T04:54:29.490Z,14.75
2023-01-24T04:56:57.177Z,14.73
2023-01-24T04:59:24.842Z,14.38
2023-01-24T05:01:52.419Z,14.93
2023-01-24T05:04:20.228Z,15.15
2023-01-24T05:06:47.868Z,14.68
2023-01-24T05:09:16.787Z,14.75
2023-01-24T05:11:47.154Z,14.90
2023-01-24T05:14:14.747Z,14.52
2023-01-24T05:16:42.338Z,14.65
2023-01-24T05:19:09.931Z,14.03
2023-01-24T05:21:37.506Z,13.70
2023-01-24T05:24:05.984Z,12.80
2023-01-24T05:26:35.011Z,13.57
2023-01-24T05:29:02.760Z,13.40
2023-01-24T05:31:30.569Z,12.63
2023-01-24T05:33:58.318Z,13.80
2023-01-24T05:36:26.272Z,13.43
2023-01-24T05:38:53.851Z,13.55
2023-01-24T05:41:22.224Z,13.23
2023-01-24T05:43:51.735Z,16.27
2023-01-24T05:46:20.987Z,16.95
2023-01-24T05:48:49.769Z,14.32
2023-01-24T05:51:20.606Z,14.13
2023-01-24T05:53:48.920Z,14.90
2023-01-24T05:56:19.326Z,13.80
2023-01-24T05:58:47.904Z,13.65
2023-01-24T06:01:18.700Z,14.18
2023-01-24T06:03:47.894Z,13.50
2023-01-24T06:06:16.914Z,13.27
2023-01-24T06:08:45.385Z,13.13
2023-01-24T06:11:15.064Z,13.80
2023-01-24T06:13:42.982Z,13.65
2023-01-24T06:16:13.901Z,13.75
2023-01-24T06:18:43.512Z,13.65
2023-01-24T06:21:38.602Z,13.38
2023-01-24T06:24:07.176Z,13.65
2023-01-24T06:26:35.527Z,13.05
2023-01-24T06:29:03.899Z,13.50
2023-01-24T06:31:40.290Z,13.57
2023-01-24T06:34:23.128Z,13.43
2023-01-24T06:37:04.874Z,13.52
2023-01-24T06:39:34.929Z,12.60
2023-01-24T06:42:02.963Z,12.80
2023-01-24T06:44:31.122Z,13.70
2023-01-24T06:46:58.957Z,12.93
2023-01-24T06:49:27.924Z,13.43
2023-01-24T06:51:55.525Z,13.75
2023-01-24T06:54:23.131Z,13.15
2023-01-24T06:56:50.665Z,14.13
2023-01-24T06:59:18.264Z,13.40
2023-01-24T07:01:45.883Z,13.52
2023-01-24T07:04:13.514Z,14.63
2023-01-24T07:06:42.683Z,13.83
2023-01-24T07:09:10.365Z,14.43
2023-01-24T07:11:38.732Z,13.32
2023-01-24T07:14:06.367Z,14.52
2023-01-24T07:16:33.913Z,14.43
2023-01-24T07:19:02.023Z,14.30
2023-01-24T07:21:30.044Z,14.27
2023-01-24T07:23:59.703Z,13.60
2023-01-24T07:26:28.115Z,14.82
2023-01-24T07:28:55.688Z,15.35
2023-01-24T07:31:23.407Z,14.90
2023-01-24T07:33:51.138Z,16.17
2023-01-24T07:36:18.916Z,19.70
2023-01-24T07:38:46.491Z,15.32
2023-01-24T07:41:15.470Z,14.65
2023-01-24T07:43:43.031Z,13.45
2023-01-24T07:46:10.681Z,13.73
2023-01-24T07:48:38.296Z,13.20
2023-01-24T07:51:06.359Z,13.65
2023-01-24T07:53:34.355Z,13.50
2023-01-24T07:56:02.971Z,13.98
2023-01-24T07:58:32.854Z,13.75
2023-01-24T08:01:00.747Z,13.20
2023-01-24T08:03:28.345Z,14.40
2023-01-24T08:05:56.256Z,14.32
2023-01-24T08:08:23.878Z,14.43
2023-01-24T08:10:51.550Z,14.55
2023-01-24T08:13:19.150Z,13.57
2023-01-24T08:15:48.023Z,14.90
2023-01-24T08:18:15.600Z,14.35
2023-01-24T08:20:43.233Z,13.68
2023-01-24T08:23:10.911Z,13.45
2023-01-24T08:25:38.855Z,13.75
2023-01-24T08:28:06.518Z,13.38
2023-01-24T08:30:34.042Z,13.68
2023-01-24T08:33:05.102Z,13.60
2023-01-24T08:35:33.974Z,12.95
2023-01-24T08:38:01.845Z,13.50
2023-01-24T08:40:33.148Z,13.43
2023-01-24T08:43:05.627Z,15.05
2023-01-24T08:45:33.247Z,15.15
2023-01-24T08:48:01.246Z,14.90
2023-01-24T08:50:30.188Z,15.60
2023-01-24T08:52:58.847Z,14.35
2023-01-24T08:55:26.739Z,13.50
2023-01-24T08:58:00.314Z,12.90
2023-01-24T09:00:28.071Z,13.53
2023-01-24T09:02:55.694Z,14.05
2023-01-24T09:05:23.611Z,14.02
2023-01-24T09:07:52.736Z,14.13
2023-01-24T09:10:20.381Z,15.60
2023-01-24T09:12:47.996Z,14.48
2023-01-24T09:15:15.594Z,13.27
2023-01-24T09:17:43.234Z,12.88
2023-01-24T09:20:11.983Z,13.00
2023-01-24T09:22:39.670Z,12.47
2023-01-24T09:25:10.668Z,13.43
2023-01-24T09:27:38.597Z,13.60
2023-01-24T09:30:07.422Z,13.37
2023-01-24T09:32:35.096Z,13.23
2023-01-24T09:35:02.842Z,12.93
2023-01-24T09:37:30.493Z,12.93
2023-01-24T09:40:00.525Z,13.57
2023-01-24T09:42:40.055Z,13.65
2023-01-24T09:45:19.599Z,13.55
2023-01-24T09:47:52.212Z,45.97
2023-01-24T09:50:23.119Z,32.45
2023-01-24T09:52:55.080Z,60.65
2023-01-24T09:55:27.501Z,27.15
2023-01-24T09:58:00.898Z,43.28
2023-01-24T10:00:31.248Z,147.33
2023-01-24T10:03:01.498Z,95.82
2023-01-24T10:05:34.876Z,36.60
2023-01-24T10:08:13.494Z,30.63
2023-01-24T10:11:01.572Z,56.13
2023-01-24T10:13:55.459Z,49.03
2023-01-24T10:16:45.776Z,23.65
2023-01-24T10:19:31.599Z,18.97
2023-01-24T10:22:11.572Z,20.30
2023-01-24T10:24:43.423Z,26.50
2023-01-24T10:27:29.209Z,22.57
2023-01-24T10:30:01.971Z,25.23
2023-01-24T10:32:33.547Z,16.75
2023-01-24T10:35:12.794Z,16.33
2023-01-24T10:37:45.566Z,17.27
2023-01-24T10:40:14.729Z,15.07
2023-01-24T10:42:42.406Z,15.03
2023-01-24T10:45:37.262Z,13.40
2023-01-24T10:48:14.149Z,12.98
2023-01-24T10:50:44.092Z,12.75
2023-01-24T10:53:15.771Z,12.47
2023-01-24T10:55:59.579Z,12.30
2023-01-24T10:58:29.186Z,14.10
2023-01-24T11:00:59.999Z,12.90
2023-01-24T11:03:30.374Z,12.40
2023-01-24T11:05:59.760Z,11.75
2023-01-24T11:08:33.771Z,12.85
2023-01-24T11:11:02.492Z,12.27
2023-01-24T11:13:36.861Z,11.95
2023-01-24T11:16:09.192Z,11.30
2023-01-24T11:18:38.103Z,11.80
2023-01-24T11:21:09.162Z,11.68
2023-01-24T11:23:36.799Z,11.55
2023-01-24T11:26:06.747Z,11.88
2023-01-24T11:28:35.781Z,11.82
2023-01-24T11:31:06.213Z,11.85
2023-01-24T11:34:05.793Z,11.60
2023-01-24T11:36:42.683Z,11.37
2023-01-24T11:39:22.770Z,10.80
2023-01-24T11:41:56.169Z,11.10
2023-01-24T11:44:49.765Z,11.70
2023-01-24T11:47:20.242Z,10.90
2023-01-24T11:50:10.300Z,10.55
2023-01-24T11:52:54.636Z,10.77
2023-01-24T11:55:35.790Z,10.55
2023-01-24T11:58:30.899Z,10.60
2023-01-24T12:01:10.491Z,9.88
2023-01-24T12:03:56.667Z,10.68
2023-01-24T12:06:34.757Z,10.40
2023-01-24T12:09:15.361Z,10.07
2023-01-24T12:11:48.751Z,10.18
2023-01-24T12:14:58.844Z,10.97
2023-01-24T12:17:44.852Z,11.02
2023-01-24T12:20:45.811Z,10.07
2023-01-24T12:23:21.398Z,10.93
2023-01-24T12:25:53.071Z,10.23
2023-01-24T12:28:29.603Z,10.55
2023-01-24T12:31:00.285Z,9.70
2023-01-24T12:33:33.812Z,9.80
2023-01-24T12:36:07.758Z,10.23
2023-01-24T12:38:42.851Z,9.77
2023-01-24T12:41:20.406Z,9.93
2023-01-24T12:44:00.283Z,9.43
2023-01-24T12:46:34.946Z,9.52
2023-01-24T12:49:15.406Z,9.43
2023-01-24T12:51:48.940Z,9.52
2023-01-24T12:54:22.393Z,10.48
2023-01-24T12:56:59.282Z,10.27
2023-01-24T12:59:29.164Z,11.02
2023-01-24T13:02:31.994Z,10.90
2023-01-24T13:05:15.426Z,10.68
2023-01-24T13:07:56.576Z,9.43
2023-01-24T13:10:46.101Z,11.15
2023-01-24T13:13:20.955Z,12.57
2023-01-24T13:16:03.723Z,12.95
2023-01-24T13:18:44.917Z,11.67
2023-01-24T13:21:20.274Z,13.13
2023-01-24T13:24:13.253Z,11.73
2023-01-24T13:27:00.640Z,11.82
2023-01-24T13:29:53.025Z,12.43
2023-01-24T13:32:23.327Z,11.30
2023-01-24T13:34:54.068Z,12.20
2023-01-24T13:37:26.088Z,10.90
2023-01-24T13:40:03.241Z,11.07
2023-01-24T13:42:37.579Z,10.38
2023-01-24T13:45:48.000Z,10.18
2023-01-24T13:48:48.080Z,10.65
2023-01-24T13:51:47.224Z,10.48
2023-01-24T13:54:37.282Z,11.07
2023-01-24T13:57:19.470Z,10.23
2023-01-24T14:00:03.607Z,10.23
2023-01-24T14:02:33.924Z,10.50
2023-01-24T14:05:01.529Z,10.60
2023-01-24T14:07:31.008Z,10.48
2023-01-24T14:10:00.354Z,10.30
2023-01-24T14:12:28.794Z,10.43
2023-01-24T14:15:07.454Z,10.00
2023-01-24T14:17:49.991Z,10.00
2023-01-24T14:20:24.935Z,10.00
2023-01-24T14:22:57.029Z,10.00
2023-01-24T14:25:45.026Z,10.03
2023-01-24T14:28:25.118Z,10.10
2023-01-24T14:30:58.652Z,10.48
2023-01-24T14:33:35.776Z,10.10
2023-01-24T14:36:13.009Z,10.65
2023-01-24T14:38:40.659Z,10.60
2023-01-24T14:41:22.671Z,11.02
2023-01-24T14:43:51.407Z,12.07
2023-01-24T14:46:25.383Z,11.85
2023-01-24T14:48:53.329Z,12.07
2023-01-24T14:51:24.984Z,11.82
2023-01-24T14:53:54.149Z,11.80
2023-01-24T14:56:23.261Z,11.43
2023-01-24T14:58:53.826Z,10.50
2023-01-24T15:01:27.564Z,11.88
2023-01-24T15:03:57.462Z,11.30
2023-01-24T15:06:26.437Z,10.95
2023-01-24T15:08:58.913Z,10.75
2023-01-24T15:11:30.914Z,11.45
2023-01-24T15:14:01.821Z,10.88
2023-01-24T15:16:37.060Z,11.20
2023-01-24T15:19:07.478Z,10.80
2023-01-24T15:21:39.540Z,10.38
2023-01-24T15:24:14.922Z,10.63
2023-01-24T15:26:44.498Z,10.95
2023-01-24T15:29:38.809Z,10.47
2023-01-24T15:32:45.449Z,11.10
2023-01-24T15:35:28.260Z,11.50
2023-01-24T15:38:11.548Z,11.52
2023-01-24T15:40:48.187Z,11.60
2023-01-24T15:43:37.209Z,11.52
2023-01-24T15:46:23.865Z,11.45
2023-01-24T15:48:58.456Z,12.50
2023-01-24T15:51:34.844Z,12.00
2023-01-24T15:54:10.162Z,11.80
2023-01-24T15:56:51.139Z,11.73
2023-01-24T15:59:22.881Z,12.20
2023-01-24T16:01:50.579Z,11.80
2023-01-24T16:04:19.830Z,12.20
2023-01-24T16:06:48.886Z,11.77
2023-01-24T16:09:16.828Z,12.85
2023-01-24T16:11:46.876Z,12.48
2023-01-24T16:14:18.110Z,13.27
2023-01-24T16:16:45.819Z,13.25
2023-01-24T16:19:17.148Z,12.90
2023-01-24T16:21:44.803Z,11.65
2023-01-24T16:24:14.262Z,12.02
2023-01-24T16:26:45.587Z,11.82
2023-01-24T16:29:16.014Z,12.82
2023-01-24T16:31:43.716Z,12.55
2023-01-24T16:34:11.356Z,14.67
2023-01-24T16:36:39.211Z,13.90
2023-01-24T16:39:07.992Z,13.63
2023-01-24T16:41:36.943Z,13.90
2023-01-24T16:44:05.122Z,13.60
2023-01-24T16:46:32.802Z,14.10
2023-01-24T16:49:00.986Z,15.10
2023-01-24T16:51:28.939Z,14.80
2023-01-24T16:53:57.022Z,14.10
2023-01-24T16:56:25.007Z,13.05
2023-01-24T16:58:57.237Z,13.52
2023-01-24T17:01:24.839Z,13.50
2023-01-24T17:03:53.196Z,12.90
2023-01-24T17:06:22.064Z,12.70
2023-01-24T17:08:51.875Z,13.60
2023-01-24T17:11:23.102Z,13.38
2023-01-24T17:13:51.465Z,13.48
2023-01-24T17:16:20.576Z,13.45
2023-01-24T17:18:48.134Z,12.70
2023-01-24T17:21:17.301Z,12.70
2023-01-24T17:23:45.193Z,13.48
2023-01-24T17:26:14.571Z,14.20
2023-01-24T17:28:43.907Z,13.18
2023-01-24T17:31:12.694Z,13.57
2023-01-24T17:33:42.401Z,18.40
2023-01-24T17:36:12.787Z,19.33
2023-01-24T17:38:41.202Z,18.23
2023-01-24T17:41:12.800Z,17.27
2023-01-24T17:43:51.814Z,15.57
2023-01-24T17:46:20.338Z,14.20
2023-01-24T17:48:49.381Z,14.37
2023-01-24T17:51:18.720Z,14.13
2023-01-24T17:53:47.641Z,15.77
2023-01-24T17:56:16.700Z,15.93
2023-01-24T17:58:44.644Z,16.10
2023-01-24T18:01:15.375Z,19.23
2023-01-24T18:03:44.372Z,17.43
2023-01-24T18:06:14.355Z,18.17
2023-01-24T18:08:41.957Z,16.33
2023-01-24T18:11:10.361Z,16.05
2023-01-24T18:13:38.594Z,15.48
2023-01-24T18:16:08.776Z,15.95
2023-01-24T18:18:38.273Z,14.77
2023-01-24T18:21:09.540Z,16.50
2023-01-24T18:23:38.934Z,17.58
2023-01-24T18:26:07.777Z,13.82
2023-01-24T18:28:36.059Z,12.85
2023-01-24T18:31:07.891Z,14.30
2023-01-24T18:33:35.609Z,14.02
2023-01-24T18:36:07.974Z,16.23
2023-01-24T18:38:35.599Z,18.42
2023-01-24T18:41:04.868Z,16.90
2023-01-24T18:43:32.432Z,13.70
2023-01-24T18:46:03.090Z,13.30
2023-01-24T18:48:33.535Z,13.02
2023-01-24T18:51:05.845Z,13.73
2023-01-24T18:53:33.464Z,12.70
2023-01-24T18:56:01.510Z,13.20
2023-01-24T18:58:32.127Z,13.20
2023-01-24T19:01:00.239Z,13.82
2023-01-24T19:03:27.854Z,14.20
2023-01-24T19:05:55.470Z,13.57
2023-01-24T19:08:24.104Z,13.45
2023-01-24T19:10:52.450Z,14.17
2023-01-24T19:13:20.163Z,12.90
2023-01-24T19:15:49.097Z,12.70
2023-01-24T19:18:17.817Z,13.50
2023-01-24T19:20:45.341Z,12.85
2023-01-24T19:23:13.024Z,13.45
2023-01-24T19:25:40.643Z,13.15
2023-01-24T19:28:08.288Z,12.85
2023-01-24T19:30:36.068Z,12.75
2023-01-24T19:33:05.285Z,13.07
2023-01-24T19:35:32.937Z,13.20
2023-01-24T19:38:00.760Z,13.65
2023-01-24T19:40:28.496Z,13.93
2023-01-24T19:42:56.281Z,13.13
2023-01-24T19:45:23.872Z,12.27
2023-01-24T19:47:54.436Z,13.07
2023-01-24T19:50:23.520Z,12.18
2023-01-24T19:52:51.833Z,13.05
2023-01-24T19:55:19.515Z,12.90
2023-01-24T19:57:48.003Z,12.30
2023-01-24T20:00:16.450Z,12.75
2023-01-24T20:02:46.301Z,12.80
2023-01-24T20:05:14.208Z,13.60
2023-01-24T20:07:43.238Z,14.07
2023-01-24T20:10:12.588Z,14.07
2023-01-24T20:12:41.578Z,13.00
2023-01-24T20:15:10.516Z,12.25
2023-01-24T20:17:38.174Z,12.95
2023-01-24T20:20:06.792Z,12.37
2023-01-24T20:22:34.498Z,13.32
2023-01-24T20:25:13.683Z,13.35
2023-01-24T20:27:46.411Z,13.07
2023-01-24T20:30:14.908Z,12.80
2023-01-24T20:32:43.391Z,13.20
2023-01-24T20:35:11.534Z,14.27
2023-01-24T20:37:39.311Z,13.80
2023-01-24T20:40:10.173Z,13.55
2023-01-24T20:42:41.866Z,13.48
2023-01-24T20:45:10.865Z,13.23
2023-01-24T20:47:39.136Z,12.75
2023-01-24T20:50:07.945Z,13.02
2023-01-24T20:52:35.653Z,13.00
2023-01-24T20:55:03.541Z,12.90
2023-01-24T20:57:32.631Z,13.07
2023-01-24T21:00:00.349Z,13.00
2023-01-24T21:02:28.656Z,13.45
2023-01-24T21:04:56.404Z,13.77
2023-01-24T21:07:24.113Z,13.85
2023-01-24T21:09:51.850Z,14.33
2023-01-24T21:12:19.502Z,15.43
2023-01-24T21:14:48.957Z,15.73
2023-01-24T21:17:19.657Z,16.80
2023-01-24T21:19:48.460Z,16.80
2023-01-24T21:22:16.091Z,14.98
2023-01-24T21:24:43.691Z,14.53
2023-01-24T21:27:11.333Z,14.27
2023-01-24T21:29:38.977Z,14.35
2023-01-24T21:32:08.195Z,14.85
2023-01-24T21:34:35.991Z,14.50
2023-01-24T21:37:03.572Z,14.73
2023-01-24T21:39:31.213Z,16.77
2023-01-24T21:42:00.394Z,16.20
2023-01-24T21:44:31.279Z,15.20
2023-01-24T21:46:59.132Z,15.32
2023-01-24T21:49:28.110Z,14.77
2023-01-24T21:51:59.628Z,14.82
2023-01-24T21:54:28.867Z,13.73
2023-01-24T21:57:29.611Z,14.40
2023-01-24T21:59:59.023Z,14.68
2023-01-24T22:02:28.126Z,14.70
2023-01-24T22:04:57.257Z,15.15
2023-01-24T22:07:26.586Z,15.00
2023-01-24T22:09:55.618Z,15.40
2023-01-24T22:12:23.464Z,14.70
2023-01-24T22:14:51.839Z,14.75
2023-01-24T22:17:21.342Z,14.13
2023-01-24T22:19:51.299Z,15.05
2023-01-24T22:22:46.042Z,14.85
2023-01-24T22:25:31.695Z,14.63
2023-01-24T22:27:59.803Z,15.18
2023-01-24T22:30:28.357Z,15.48
2023-01-24T22:32:56.864Z,15.50
2023-01-24T22:35:27.077Z,16.60
2023-01-24T22:37:58.165Z,16.63
2023-01-24T22:40:27.665Z,15.73
2023-01-24T22:42:57.790Z,16.35
2023-01-24T22:45:25.855Z,17.55
2023-01-24T22:47:53.648Z,17.63
2023-01-24T22:50:21.435Z,19.10
2023-01-24T22:52:50.085Z,19.13
2023-01-24T22:55:19.709Z,16.65
2023-01-24T22:57:47.592Z,15.80
2023-01-24T23:00:16.516Z,16.23
2023-01-24T23:02:44.108Z,16.35
2023-01-24T23:05:12.314Z,16.92
2023-01-24T23:07:40.207Z,16.80
2023-01-24T23:10:08.620Z,15.80
2023-01-24T23:13:06.496Z,15.05
2023-01-24T23:15:51.450Z,15.18
2023-01-24T23:18:43.532Z,15.23
2023-01-24T23:21:31.375Z,16.05
2023-01-24T23:23:59.598Z,15.10
2023-01-24T23:26:27.740Z,15.10
2023-01-24T23:29:07.278Z,15.25
2023-01-24T23:31:35.152Z,15.40
2023-01-24T23:34:03.410Z,15.30
2023-01-24T23:36:33.202Z,15.23
2023-01-24T23:39:00.860Z,15.73
2023-01-24T23:41:28.463Z,15.65
2023-01-24T23:43:56.070Z,15.35
2023-01-24T23:46:25.049Z,15.20
2023-01-24T23:48:54.890Z,16.17
2023-01-24T23:51:22.966Z,16.88
2023-01-24T23:53:50.890Z,16.30
2023-01-24T23:56:18.575Z,16.80
2023-01-24T23:58:46.140Z,15.93
